sensor_id;sensor_type;location;lat;lon;timestamp;temperature;humidity
21425;DHT22;10873;51.132;16.848;2023-08-06T00:02:03;26.60;67.80
21425;DHT22;10873;51.132;16.848;2023-08-06T00:04:29;26.60;67.80
21425;DHT22;10873;51.132;16.848;2023-08-06T00:06:55;26.60;67.80
21425;DHT22;10873;51.132;16.848;2023-08-06T00:09:21;26.60;67.80
21425;DHT22;10873;51.132;16.848;2023-08-06T00:11:48;26.60;67.80
21425;DHT22;10873;51.132;16.848;2023-08-06T00:14:14;26.60;67.80
21425;DHT22;10873;51.132;16.848;2023-08-06T00:16:43;26.60;67.80
21425;DHT22;10873;51.132;16.848;2023-08-06T00:19:09;26.60;68.50
21425;DHT22;10873;51.132;16.848;2023-08-06T00:21:35;26.60;67.80
21425;DHT22;10873;51.132;16.848;2023-08-06T00:24:01;26.60;67.70
21425;DHT22;10873;51.132;16.848;2023-08-06T00:26:27;26.60;67.80
21425;DHT22;10873;51.132;16.848;2023-08-06T00:28:55;26.60;67.80
21425;DHT22;10873;51.132;16.848;2023-08-06T00:31:20;26.60;67.80
21425;DHT22;10873;51.132;16.848;2023-08-06T00:33:47;26.60;67.80
21425;DHT22;10873;51.132;16.848;2023-08-06T00:36:12;26.60;67.80
21425;DHT22;10873;51.132;16.848;2023-08-06T00:38:39;26.60;67.80
21425;DHT22;10873;51.132;16.848;2023-08-06T00:41:04;26.60;68.60
21425;DHT22;10873;51.132;16.848;2023-08-06T00:43:31;26.60;67.80
21425;DHT22;10873;51.132;16.848;2023-08-06T00:45:58;26.60;67.80
21425;DHT22;10873;51.132;16.848;2023-08-06T00:48:24;26.60;67.80
21425;DHT22;10873;51.132;16.848;2023-08-06T00:50:50;26.60;67.80
21425;DHT22;10873;51.132;16.848;2023-08-06T00:53:17;26.60;67.80
21425;DHT22;10873;51.132;16.848;2023-08-06T00:55:44;26.60;67.90
21425;DHT22;10873;51.132;16.848;2023-08-06T00:58:11;26.60;67.80
21425;DHT22;10873;51.132;16.848;2023-08-06T01:00:37;26.50;67.70
21425;DHT22;10873;51.132;16.848;2023-08-06T01:03:05;26.50;67.70
21425;DHT22;10873;51.132;16.848;2023-08-06T01:05:31;26.50;67.70
21425;DHT22;10873;51.132;16.848;2023-08-06T01:08:09;26.50;67.70
21425;DHT22;10873;51.132;16.848;2023-08-06T01:10:47;26.50;67.70
21425;DHT22;10873;51.132;16.848;2023-08-06T01:13:23;26.50;67.70
21425;DHT22;10873;51.132;16.848;2023-08-06T01:15:50;26.50;67.70
21425;DHT22;10873;51.132;16.848;2023-08-06T01:18:21;26.50;67.70
21425;DHT22;10873;51.132;16.848;2023-08-06T01:20:48;26.50;67.70
21425;DHT22;10873;51.132;16.848;2023-08-06T01:23:15;26.50;67.70
21425;DHT22;10873;51.132;16.848;2023-08-06T01:25:58;26.50;67.80
21425;DHT22;10873;51.132;16.848;2023-08-06T01:28:32;26.50;67.80
21425;DHT22;10873;51.132;16.848;2023-08-06T01:31:02;26.50;67.80
21425;DHT22;10873;51.132;16.848;2023-08-06T01:33:31;26.50;67.80
21425;DHT22;10873;51.132;16.848;2023-08-06T01:35:59;26.50;67.80
21425;DHT22;10873;51.132;16.848;2023-08-06T01:38:26;26.40;67.70
21425;DHT22;10873;51.132;16.848;2023-08-06T01:40:53;26.50;67.80
21425;DHT22;10873;51.132;16.848;2023-08-06T01:43:20;26.40;67.70
21425;DHT22;10873;51.132;16.848;2023-08-06T01:45:45;26.40;67.70
21425;DHT22;10873;51.132;16.848;2023-08-06T01:48:12;26.40;68.50
21425;DHT22;10873;51.132;16.848;2023-08-06T01:50:37;26.40;67.80
21425;DHT22;10873;51.132;16.848;2023-08-06T01:53:05;26.40;67.80
21425;DHT22;10873;51.132;16.848;2023-08-06T01:55:31;26.50;67.80
21425;DHT22;10873;51.132;16.848;2023-08-06T01:57:57;26.50;67.80
21425;DHT22;10873;51.132;16.848;2023-08-06T02:00:23;26.50;67.80
21425;DHT22;10873;51.132;16.848;2023-08-06T02:02:49;26.50;67.80
21425;DHT22;10873;51.132;16.848;2023-08-06T02:05:15;26.50;67.80
21425;DHT22;10873;51.132;16.848;2023-08-06T02:07:41;26.50;67.80
21425;DHT22;10873;51.132;16.848;2023-08-06T02:10:09;26.50;67.80
21425;DHT22;10873;51.132;16.848;2023-08-06T02:12:35;26.50;67.80
21425;DHT22;10873;51.132;16.848;2023-08-06T02:15:01;26.50;67.80
21425;DHT22;10873;51.132;16.848;2023-08-06T02:17:27;26.50;67.80
21425;DHT22;10873;51.132;16.848;2023-08-06T02:19:53;26.50;67.80
21425;DHT22;10873;51.132;16.848;2023-08-06T02:22:19;26.50;67.80
21425;DHT22;10873;51.132;16.848;2023-08-06T02:24:45;26.50;67.70
21425;DHT22;10873;51.132;16.848;2023-08-06T02:27:12;26.50;67.70
21425;DHT22;10873;51.132;16.848;2023-08-06T02:29:40;26.50;67.70
21425;DHT22;10873;51.132;16.848;2023-08-06T02:32:07;26.50;67.60
21425;DHT22;10873;51.132;16.848;2023-08-06T02:34:33;26.50;67.60
21425;DHT22;10873;51.132;16.848;2023-08-06T02:36:59;26.50;67.60
21425;DHT22;10873;51.132;16.848;2023-08-06T02:39:25;26.50;67.60
21425;DHT22;10873;51.132;16.848;2023-08-06T02:41:51;26.50;67.60
21425;DHT22;10873;51.132;16.848;2023-08-06T02:44:18;26.50;67.60
21425;DHT22;10873;51.132;16.848;2023-08-06T02:46:44;26.50;67.60
21425;DHT22;10873;51.132;16.848;2023-08-06T02:49:10;26.50;67.50
21425;DHT22;10873;51.132;16.848;2023-08-06T02:51:36;26.40;67.40
21425;DHT22;10873;51.132;16.848;2023-08-06T02:54:02;26.40;67.40
21425;DHT22;10873;51.132;16.848;2023-08-06T02:56:28;26.40;67.40
21425;DHT22;10873;51.132;16.848;2023-08-06T02:58:54;26.40;67.40
21425;DHT22;10873;51.132;16.848;2023-08-06T03:01:22;26.40;67.50
21425;DHT22;10873;51.132;16.848;2023-08-06T03:03:49;26.40;67.40
21425;DHT22;10873;51.132;16.848;2023-08-06T03:06:15;26.40;67.50
21425;DHT22;10873;51.132;16.848;2023-08-06T03:08:40;26.40;67.50
21425;DHT22;10873;51.132;16.848;2023-08-06T03:11:07;26.40;67.50
21425;DHT22;10873;51.132;16.848;2023-08-06T03:13:32;26.40;67.50
21425;DHT22;10873;51.132;16.848;2023-08-06T03:15:59;26.40;67.50
21425;DHT22;10873;51.132;16.848;2023-08-06T03:18:27;26.30;68.10
21425;DHT22;10873;51.132;16.848;2023-08-06T03:20:53;26.30;67.30
21425;DHT22;10873;51.132;16.848;2023-08-06T03:23:19;26.30;67.30
21425;DHT22;10873;51.132;16.848;2023-08-06T03:25:46;26.30;67.30
21425;DHT22;10873;51.132;16.848;2023-08-06T03:28:12;26.30;67.30
21425;DHT22;10873;51.132;16.848;2023-08-06T03:30:38;26.30;67.30
21425;DHT22;10873;51.132;16.848;2023-08-06T03:33:04;26.30;67.30
21425;DHT22;10873;51.132;16.848;2023-08-06T03:35:32;26.30;67.30
21425;DHT22;10873;51.132;16.848;2023-08-06T03:37:58;26.30;67.30
21425;DHT22;10873;51.132;16.848;2023-08-06T03:40:24;26.30;67.30
21425;DHT22;10873;51.132;16.848;2023-08-06T03:42:49;26.30;67.30
21425;DHT22;10873;51.132;16.848;2023-08-06T03:45:16;26.30;67.30
21425;DHT22;10873;51.132;16.848;2023-08-06T03:47:42;26.30;67.30
21425;DHT22;10873;51.132;16.848;2023-08-06T03:50:08;26.20;67.20
21425;DHT22;10873;51.132;16.848;2023-08-06T03:52:36;26.20;67.20
21425;DHT22;10873;51.132;16.848;2023-08-06T03:55:02;26.20;67.20
21425;DHT22;10873;51.132;16.848;2023-08-06T03:57:28;26.20;67.20
21425;DHT22;10873;51.132;16.848;2023-08-06T03:59:54;26.20;67.30
21425;DHT22;10873;51.132;16.848;2023-08-06T04:02:20;26.20;67.30
21425;DHT22;10873;51.132;16.848;2023-08-06T04:04:46;26.20;67.40
21425;DHT22;10873;51.132;16.848;2023-08-06T04:07:12;26.20;67.40
21425;DHT22;10873;51.132;16.848;2023-08-06T04:09:53;26.20;67.30
21425;DHT22;10873;51.132;16.848;2023-08-06T04:12:19;26.20;67.30
21425;DHT22;10873;51.132;16.848;2023-08-06T04:14:45;26.20;67.30
21425;DHT22;10873;51.132;16.848;2023-08-06T04:17:11;26.20;67.30
21425;DHT22;10873;51.132;16.848;2023-08-06T04:19:37;26.20;67.30
21425;DHT22;10873;51.132;16.848;2023-08-06T04:22:03;26.20;67.40
21425;DHT22;10873;51.132;16.848;2023-08-06T04:24:30;26.20;67.30
21425;DHT22;10873;51.132;16.848;2023-08-06T04:26:57;26.20;67.30
21425;DHT22;10873;51.132;16.848;2023-08-06T04:29:23;26.20;67.30
21425;DHT22;10873;51.132;16.848;2023-08-06T04:31:49;26.20;67.30
21425;DHT22;10873;51.132;16.848;2023-08-06T04:34:15;26.20;67.30
21425;DHT22;10873;51.132;16.848;2023-08-06T04:36:41;26.20;67.30
21425;DHT22;10873;51.132;16.848;2023-08-06T04:39:07;26.20;67.40
21425;DHT22;10873;51.132;16.848;2023-08-06T04:41:33;26.20;67.40
21425;DHT22;10873;51.132;16.848;2023-08-06T04:44:00;26.20;67.40
21425;DHT22;10873;51.132;16.848;2023-08-06T04:46:26;26.20;67.50
21425;DHT22;10873;51.132;16.848;2023-08-06T04:48:52;26.20;67.50
21425;DHT22;10873;51.132;16.848;2023-08-06T04:51:18;26.20;67.40
21425;DHT22;10873;51.132;16.848;2023-08-06T04:53:44;26.20;67.40
21425;DHT22;10873;51.132;16.848;2023-08-06T04:56:10;26.20;67.30
21425;DHT22;10873;51.132;16.848;2023-08-06T04:58:36;26.20;67.40
21425;DHT22;10873;51.132;16.848;2023-08-06T05:01:04;26.20;67.30
21425;DHT22;10873;51.132;16.848;2023-08-06T05:03:30;26.20;67.30
21425;DHT22;10873;51.132;16.848;2023-08-06T05:05:55;26.20;67.30
21425;DHT22;10873;51.132;16.848;2023-08-06T05:08:22;26.20;67.30
21425;DHT22;10873;51.132;16.848;2023-08-06T05:10:48;26.20;67.30
21425;DHT22;10873;51.132;16.848;2023-08-06T05:13:14;26.20;68.20
21425;DHT22;10873;51.132;16.848;2023-08-06T05:15:40;26.20;67.40
21425;DHT22;10873;51.132;16.848;2023-08-06T05:18:09;26.20;67.30
21425;DHT22;10873;51.132;16.848;2023-08-06T05:20:36;26.20;67.30
21425;DHT22;10873;51.132;16.848;2023-08-06T05:23:02;26.20;67.30
21425;DHT22;10873;51.132;16.848;2023-08-06T05:25:28;26.20;67.30
21425;DHT22;10873;51.132;16.848;2023-08-06T05:27:54;26.20;67.30
21425;DHT22;10873;51.132;16.848;2023-08-06T05:30:20;26.20;67.30
21425;DHT22;10873;51.132;16.848;2023-08-06T05:32:46;26.20;67.30
21425;DHT22;10873;51.132;16.848;2023-08-06T05:35:14;26.20;67.30
21425;DHT22;10873;51.132;16.848;2023-08-06T05:37:40;26.20;67.30
21425;DHT22;10873;51.132;16.848;2023-08-06T05:40:07;26.20;67.30
21425;DHT22;10873;51.132;16.848;2023-08-06T05:42:33;26.20;67.30
21425;DHT22;10873;51.132;16.848;2023-08-06T05:44:59;26.10;67.20
21425;DHT22;10873;51.132;16.848;2023-08-06T05:47:25;26.20;67.30
21425;DHT22;10873;51.132;16.848;2023-08-06T05:49:51;26.10;67.30
21425;DHT22;10873;51.132;16.848;2023-08-06T05:52:18;26.10;67.20
21425;DHT22;10873;51.132;16.848;2023-08-06T05:54:44;26.20;67.30
21425;DHT22;10873;51.132;16.848;2023-08-06T05:57:10;26.10;67.20
21425;DHT22;10873;51.132;16.848;2023-08-06T05:59:36;26.10;67.20
21425;DHT22;10873;51.132;16.848;2023-08-06T06:02:02;26.20;67.30
21425;DHT22;10873;51.132;16.848;2023-08-06T06:04:28;26.10;67.20
21425;DHT22;10873;51.132;16.848;2023-08-06T06:06:55;26.10;67.20
21425;DHT22;10873;51.132;16.848;2023-08-06T06:09:22;26.20;67.30
21425;DHT22;10873;51.132;16.848;2023-08-06T06:11:49;26.10;67.20
21425;DHT22;10873;51.132;16.848;2023-08-06T06:14:15;26.10;67.20
21425;DHT22;10873;51.132;16.848;2023-08-06T06:16:41;26.10;67.20
21425;DHT22;10873;51.132;16.848;2023-08-06T06:19:07;26.10;67.10
21425;DHT22;10873;51.132;16.848;2023-08-06T06:21:33;26.10;67.20
21425;DHT22;10873;51.132;16.848;2023-08-06T06:23:59;26.10;67.20
21425;DHT22;10873;51.132;16.848;2023-08-06T06:26:27;26.10;67.20
21425;DHT22;10873;51.132;16.848;2023-08-06T06:28:54;26.10;67.20
21425;DHT22;10873;51.132;16.848;2023-08-06T06:31:20;26.10;67.20
21425;DHT22;10873;51.132;16.848;2023-08-06T06:33:46;26.10;67.20
21425;DHT22;10873;51.132;16.848;2023-08-06T06:36:12;26.10;67.30
21425;DHT22;10873;51.132;16.848;2023-08-06T06:38:38;26.10;67.30
21425;DHT22;10873;51.132;16.848;2023-08-06T06:41:04;26.10;67.30
21425;DHT22;10873;51.132;16.848;2023-08-06T06:43:32;26.10;67.30
21425;DHT22;10873;51.132;16.848;2023-08-06T06:45:58;26.10;67.30
21425;DHT22;10873;51.132;16.848;2023-08-06T06:48:26;26.10;68.10
21425;DHT22;10873;51.132;16.848;2023-08-06T06:50:53;26.10;67.30
21425;DHT22;10873;51.132;16.848;2023-08-06T06:53:19;26.10;67.40
21425;DHT22;10873;51.132;16.848;2023-08-06T06:55:45;26.10;67.40
21425;DHT22;10873;51.132;16.848;2023-08-06T06:58:14;26.10;67.40
21425;DHT22;10873;51.132;16.848;2023-08-06T07:00:42;26.10;67.40
21425;DHT22;10873;51.132;16.848;2023-08-06T07:03:08;26.10;67.30
21425;DHT22;10873;51.132;16.848;2023-08-06T07:05:34;26.10;67.30
21425;DHT22;10873;51.132;16.848;2023-08-06T07:08:00;26.10;67.20
21425;DHT22;10873;51.132;16.848;2023-08-06T07:10:26;26.10;67.20
21425;DHT22;10873;51.132;16.848;2023-08-06T07:12:52;26.10;67.20
21425;DHT22;10873;51.132;16.848;2023-08-06T07:15:18;26.10;67.20
21425;DHT22;10873;51.132;16.848;2023-08-06T07:17:45;26.10;67.20
21425;DHT22;10873;51.132;16.848;2023-08-06T07:20:12;26.10;67.20
21425;DHT22;10873;51.132;16.848;2023-08-06T07:22:39;26.10;67.90
21425;DHT22;10873;51.132;16.848;2023-08-06T07:25:05;26.10;67.20
21425;DHT22;10873;51.132;16.848;2023-08-06T07:27:32;26.10;67.20
21425;DHT22;10873;51.132;16.848;2023-08-06T07:29:58;26.10;67.20
21425;DHT22;10873;51.132;16.848;2023-08-06T07:32:24;26.10;67.40
21425;DHT22;10873;51.132;16.848;2023-08-06T07:34:52;26.10;67.50
21425;DHT22;10873;51.132;16.848;2023-08-06T07:37:22;26.10;68.00
21425;DHT22;10873;51.132;16.848;2023-08-06T07:39:48;26.10;68.30
21425;DHT22;10873;51.132;16.848;2023-08-06T07:42:15;26.10;68.40
21425;DHT22;10873;51.132;16.848;2023-08-06T07:44:41;26.10;68.30
21425;DHT22;10873;51.132;16.848;2023-08-06T07:47:08;26.10;68.20
21425;DHT22;10873;51.132;16.848;2023-08-06T07:49:34;26.10;68.10
21425;DHT22;10873;51.132;16.848;2023-08-06T07:52:01;26.20;68.10
21425;DHT22;10873;51.132;16.848;2023-08-06T07:54:28;26.20;68.10
21425;DHT22;10873;51.132;16.848;2023-08-06T07:56:54;26.20;68.10
21425;DHT22;10873;51.132;16.848;2023-08-06T07:59:20;26.20;68.10
21425;DHT22;10873;51.132;16.848;2023-08-06T08:01:46;26.20;68.20
21425;DHT22;10873;51.132;16.848;2023-08-06T08:04:13;26.20;68.30
21425;DHT22;10873;51.132;16.848;2023-08-06T08:06:38;26.20;68.20
21425;DHT22;10873;51.132;16.848;2023-08-06T08:09:06;26.20;68.10
21425;DHT22;10873;51.132;16.848;2023-08-06T08:11:32;26.20;67.90
21425;DHT22;10873;51.132;16.848;2023-08-06T08:13:58;26.20;67.80
21425;DHT22;10873;51.132;16.848;2023-08-06T08:16:24;26.20;67.70
21425;DHT22;10873;51.132;16.848;2023-08-06T08:18:50;26.10;68.40
21425;DHT22;10873;51.132;16.848;2023-08-06T08:21:16;26.10;67.70
21425;DHT22;10873;51.132;16.848;2023-08-06T08:23:43;26.10;67.80
21425;DHT22;10873;51.132;16.848;2023-08-06T08:26:11;26.10;67.80
21425;DHT22;10873;51.132;16.848;2023-08-06T08:28:37;26.10;67.90
21425;DHT22;10873;51.132;16.848;2023-08-06T08:31:03;26.10;67.80
21425;DHT22;10873;51.132;16.848;2023-08-06T08:33:29;26.10;67.90
21425;DHT22;10873;51.132;16.848;2023-08-06T08:35:55;26.10;67.90
21425;DHT22;10873;51.132;16.848;2023-08-06T08:38:21;26.10;67.90
21425;DHT22;10873;51.132;16.848;2023-08-06T08:40:51;26.10;67.90
21425;DHT22;10873;51.132;16.848;2023-08-06T08:43:21;26.10;67.90
21425;DHT22;10873;51.132;16.848;2023-08-06T08:45:50;26.10;67.90
21425;DHT22;10873;51.132;16.848;2023-08-06T08:48:17;26.10;68.00
21425;DHT22;10873;51.132;16.848;2023-08-06T08:50:44;26.10;68.00
21425;DHT22;10873;51.132;16.848;2023-08-06T08:53:11;26.10;68.70
21425;DHT22;10873;51.132;16.848;2023-08-06T08:55:39;26.10;68.00
21425;DHT22;10873;51.132;16.848;2023-08-06T08:58:08;26.20;68.90
21425;DHT22;10873;51.132;16.848;2023-08-06T09:00:36;26.20;68.90
21425;DHT22;10873;51.132;16.848;2023-08-06T09:03:06;26.20;69.00
21425;DHT22;10873;51.132;16.848;2023-08-06T09:05:32;26.20;69.00
21425;DHT22;10873;51.132;16.848;2023-08-06T09:08:03;26.20;69.10
21425;DHT22;10873;51.132;16.848;2023-08-06T09:10:29;26.20;69.10
21425;DHT22;10873;51.132;16.848;2023-08-06T09:12:56;26.30;69.10
21425;DHT22;10873;51.132;16.848;2023-08-06T09:15:24;26.30;69.20
21425;DHT22;10873;51.132;16.848;2023-08-06T09:17:51;26.30;69.20
21425;DHT22;10873;51.132;16.848;2023-08-06T09:20:17;26.30;69.30
21425;DHT22;10873;51.132;16.848;2023-08-06T09:22:44;26.30;69.40
21425;DHT22;10873;51.132;16.848;2023-08-06T09:25:11;26.30;69.40
21425;DHT22;10873;51.132;16.848;2023-08-06T09:27:39;26.30;69.40
21425;DHT22;10873;51.132;16.848;2023-08-06T09:30:06;26.30;69.30
21425;DHT22;10873;51.132;16.848;2023-08-06T09:32:45;26.30;69.30
21425;DHT22;10873;51.132;16.848;2023-08-06T09:35:16;26.30;69.30
21425;DHT22;10873;51.132;16.848;2023-08-06T09:37:42;26.30;69.30
21425;DHT22;10873;51.132;16.848;2023-08-06T09:40:24;26.40;69.20
21425;DHT22;10873;51.132;16.848;2023-08-06T09:42:51;26.40;69.20
21425;DHT22;10873;51.132;16.848;2023-08-06T09:45:17;26.40;69.20
21425;DHT22;10873;51.132;16.848;2023-08-06T09:47:43;26.40;69.10
21425;DHT22;10873;51.132;16.848;2023-08-06T09:50:17;26.40;69.00
21425;DHT22;10873;51.132;16.848;2023-08-06T09:52:44;26.50;69.00
21425;DHT22;10873;51.132;16.848;2023-08-06T09:55:12;26.50;69.00
21425;DHT22;10873;51.132;16.848;2023-08-06T09:57:38;26.50;68.90
21425;DHT22;10873;51.132;16.848;2023-08-06T10:00:06;26.50;68.70
21425;DHT22;10873;51.132;16.848;2023-08-06T10:02:35;26.60;68.70
21425;DHT22;10873;51.132;16.848;2023-08-06T10:05:03;26.60;68.60
21425;DHT22;10873;51.132;16.848;2023-08-06T10:07:31;26.60;68.60
21425;DHT22;10873;51.132;16.848;2023-08-06T10:09:58;26.60;68.50
21425;DHT22;10873;51.132;16.848;2023-08-06T10:12:25;26.60;68.50
21425;DHT22;10873;51.132;16.848;2023-08-06T10:14:54;26.60;68.40
21425;DHT22;10873;51.132;16.848;2023-08-06T10:17:22;26.60;69.10
21425;DHT22;10873;51.132;16.848;2023-08-06T10:19:50;26.60;68.30
21425;DHT22;10873;51.132;16.848;2023-08-06T10:22:17;26.60;69.00
21425;DHT22;10873;51.132;16.848;2023-08-06T10:24:49;26.60;68.20
21425;DHT22;10873;51.132;16.848;2023-08-06T10:27:22;26.60;68.20
21425;DHT22;10873;51.132;16.848;2023-08-06T10:29:48;26.60;68.10
21425;DHT22;10873;51.132;16.848;2023-08-06T10:32:17;26.60;68.10
21425;DHT22;10873;51.132;16.848;2023-08-06T10:34:54;26.60;68.10
21425;DHT22;10873;51.132;16.848;2023-08-06T10:37:23;26.60;68.10
21425;DHT22;10873;51.132;16.848;2023-08-06T10:39:51;26.60;68.10
21425;DHT22;10873;51.132;16.848;2023-08-06T10:42:21;26.60;68.10
21425;DHT22;10873;51.132;16.848;2023-08-06T10:45:11;26.60;68.10
21425;DHT22;10873;51.132;16.848;2023-08-06T10:47:39;26.60;68.10
21425;DHT22;10873;51.132;16.848;2023-08-06T10:50:07;26.60;68.10
21425;DHT22;10873;51.132;16.848;2023-08-06T10:52:33;26.60;68.50
21425;DHT22;10873;51.132;16.848;2023-08-06T10:55:01;26.60;69.30
21425;DHT22;10873;51.132;16.848;2023-08-06T10:57:27;26.60;69.30
21425;DHT22;10873;51.132;16.848;2023-08-06T10:59:53;26.60;69.60
21425;DHT22;10873;51.132;16.848;2023-08-06T11:02:19;26.60;69.80
21425;DHT22;10873;51.132;16.848;2023-08-06T11:04:45;26.60;70.80
21425;DHT22;10873;51.132;16.848;2023-08-06T11:07:11;26.60;70.20
21425;DHT22;10873;51.132;16.848;2023-08-06T11:09:38;26.60;70.70
21425;DHT22;10873;51.132;16.848;2023-08-06T11:12:09;26.60;70.90
21425;DHT22;10873;51.132;16.848;2023-08-06T11:14:36;26.70;71.70
21425;DHT22;10873;51.132;16.848;2023-08-06T11:17:03;26.80;75.30
21425;DHT22;10873;51.132;16.848;2023-08-06T11:19:29;27.10;77.10
21425;DHT22;10873;51.132;16.848;2023-08-06T11:21:56;27.40;77.00
21425;DHT22;10873;51.132;16.848;2023-08-06T11:24:23;27.80;76.90
21425;DHT22;10873;51.132;16.848;2023-08-06T11:26:50;28.10;76.60
21425;DHT22;10873;51.132;16.848;2023-08-06T11:29:17;28.40;74.10
21425;DHT22;10873;51.132;16.848;2023-08-06T11:31:43;28.70;73.00
21425;DHT22;10873;51.132;16.848;2023-08-06T11:34:09;28.90;71.60
21425;DHT22;10873;51.132;16.848;2023-08-06T11:36:40;29.10;70.60
21425;DHT22;10873;51.132;16.848;2023-08-06T11:39:06;29.30;70.10
21425;DHT22;10873;51.132;16.848;2023-08-06T11:41:33;29.40;69.30
21425;DHT22;10873;51.132;16.848;2023-08-06T11:43:59;29.60;68.90
21425;DHT22;10873;51.132;16.848;2023-08-06T11:46:27;29.70;68.50
21425;DHT22;10873;51.132;16.848;2023-08-06T11:48:54;29.80;68.00
21425;DHT22;10873;51.132;16.848;2023-08-06T11:51:22;29.90;67.50
21425;DHT22;10873;51.132;16.848;2023-08-06T11:53:48;30.10;67.30
21425;DHT22;10873;51.132;16.848;2023-08-06T11:56:15;30.10;67.20
21425;DHT22;10873;51.132;16.848;2023-08-06T11:58:41;30.30;66.60
21425;DHT22;10873;51.132;16.848;2023-08-06T12:01:08;30.40;66.30
21425;DHT22;10873;51.132;16.848;2023-08-06T12:03:40;30.50;66.50
21425;DHT22;10873;51.132;16.848;2023-08-06T12:06:06;30.50;66.50
21425;DHT22;10873;51.132;16.848;2023-08-06T12:08:35;30.60;66.40
21425;DHT22;10873;51.132;16.848;2023-08-06T12:11:01;30.70;65.90
21425;DHT22;10873;51.132;16.848;2023-08-06T12:13:28;30.80;65.70
21425;DHT22;10873;51.132;16.848;2023-08-06T12:15:54;30.90;65.50
21425;DHT22;10873;51.132;16.848;2023-08-06T12:18:22;30.90;65.60
21425;DHT22;10873;51.132;16.848;2023-08-06T12:20:50;30.70;65.20
21425;DHT22;10873;51.132;16.848;2023-08-06T12:23:16;30.50;67.00
21425;DHT22;10873;51.132;16.848;2023-08-06T12:25:43;30.30;65.40
21425;DHT22;10873;51.132;16.848;2023-08-06T12:28:10;30.00;65.50
21425;DHT22;10873;51.132;16.848;2023-08-06T12:30:36;29.90;66.10
21425;DHT22;10873;51.132;16.848;2023-08-06T12:33:02;29.70;65.50
21425;DHT22;10873;51.132;16.848;2023-08-06T12:35:28;29.50;67.30
21425;DHT22;10873;51.132;16.848;2023-08-06T12:37:56;29.40;67.00
21425;DHT22;10873;51.132;16.848;2023-08-06T12:40:25;29.30;68.70
21425;DHT22;10873;51.132;16.848;2023-08-06T12:42:51;29.50;69.30
21425;DHT22;10873;51.132;16.848;2023-08-06T12:45:17;29.60;69.40
21425;DHT22;10873;51.132;16.848;2023-08-06T12:47:46;29.80;69.60
21425;DHT22;10873;51.132;16.848;2023-08-06T12:50:13;29.90;69.50
21425;DHT22;10873;51.132;16.848;2023-08-06T12:52:39;30.10;69.30
21425;DHT22;10873;51.132;16.848;2023-08-06T12:55:07;30.10;69.20
21425;DHT22;10873;51.132;16.848;2023-08-06T12:57:33;30.00;68.90
21425;DHT22;10873;51.132;16.848;2023-08-06T13:00:00;30.00;69.60
21425;DHT22;10873;51.132;16.848;2023-08-06T13:02:26;30.10;69.20
21425;DHT22;10873;51.132;16.848;2023-08-06T13:04:55;30.20;69.30
21425;DHT22;10873;51.132;16.848;2023-08-06T13:07:22;30.30;67.80
21425;DHT22;10873;51.132;16.848;2023-08-06T13:09:50;30.40;67.40
21425;DHT22;10873;51.132;16.848;2023-08-06T13:12:17;30.50;66.50
21425;DHT22;10873;51.132;16.848;2023-08-06T13:14:46;30.70;66.00
21425;DHT22;10873;51.132;16.848;2023-08-06T13:17:12;30.70;65.40
21425;DHT22;10873;51.132;16.848;2023-08-06T13:19:39;30.60;65.20
21425;DHT22;10873;51.132;16.848;2023-08-06T13:22:06;30.50;65.80
21425;DHT22;10873;51.132;16.848;2023-08-06T13:24:35;30.40;66.10
21425;DHT22;10873;51.132;16.848;2023-08-06T13:27:01;30.50;65.60
21425;DHT22;10873;51.132;16.848;2023-08-06T13:29:30;30.60;65.20
21425;DHT22;10873;51.132;16.848;2023-08-06T13:31:56;30.70;64.70
21425;DHT22;10873;51.132;16.848;2023-08-06T13:34:23;30.80;64.30
21425;DHT22;10873;51.132;16.848;2023-08-06T13:36:49;30.90;63.90
21425;DHT22;10873;51.132;16.848;2023-08-06T13:39:16;31.00;63.50
21425;DHT22;10873;51.132;16.848;2023-08-06T13:41:44;31.10;63.40
21425;DHT22;10873;51.132;16.848;2023-08-06T13:44:10;31.10;63.20
21425;DHT22;10873;51.132;16.848;2023-08-06T13:46:38;31.00;64.50
21425;DHT22;10873;51.132;16.848;2023-08-06T13:49:05;30.90;64.30
21425;DHT22;10873;51.132;16.848;2023-08-06T13:51:33;30.90;64.00
21425;DHT22;10873;51.132;16.848;2023-08-06T13:54:04;30.90;64.30
21425;DHT22;10873;51.132;16.848;2023-08-06T13:56:30;30.70;63.70
21425;DHT22;10873;51.132;16.848;2023-08-06T13:58:57;30.60;64.10
21425;DHT22;10873;51.132;16.848;2023-08-06T14:01:26;30.40;63.60
21425;DHT22;10873;51.132;16.848;2023-08-06T14:03:54;30.30;63.80
21425;DHT22;10873;51.132;16.848;2023-08-06T14:06:21;30.10;63.50
21425;DHT22;10873;51.132;16.848;2023-08-06T14:08:55;30.00;63.70
21425;DHT22;10873;51.132;16.848;2023-08-06T14:11:22;29.90;63.80
21425;DHT22;10873;51.132;16.848;2023-08-06T14:13:48;29.80;63.60
21425;DHT22;10873;51.132;16.848;2023-08-06T14:16:14;29.60;63.30
21425;DHT22;10873;51.132;16.848;2023-08-06T14:18:42;29.50;63.20
21425;DHT22;10873;51.132;16.848;2023-08-06T14:21:12;29.40;63.30
21425;DHT22;10873;51.132;16.848;2023-08-06T14:23:39;29.40;63.40
21425;DHT22;10873;51.132;16.848;2023-08-06T14:26:07;29.30;63.60
21425;DHT22;10873;51.132;16.848;2023-08-06T14:28:40;29.20;63.80
21425;DHT22;10873;51.132;16.848;2023-08-06T14:31:07;29.10;63.70
21425;DHT22;10873;51.132;16.848;2023-08-06T14:33:33;29.00;63.50
21425;DHT22;10873;51.132;16.848;2023-08-06T14:35:59;28.90;63.80
21425;DHT22;10873;51.132;16.848;2023-08-06T14:38:27;28.90;64.20
21425;DHT22;10873;51.132;16.848;2023-08-06T14:40:53;28.80;66.20
21425;DHT22;10873;51.132;16.848;2023-08-06T14:43:24;28.80;66.50
21425;DHT22;10873;51.132;16.848;2023-08-06T14:45:50;28.70;66.50
21425;DHT22;10873;51.132;16.848;2023-08-06T14:48:17;28.70;66.80
21425;DHT22;10873;51.132;16.848;2023-08-06T14:50:43;28.70;68.50
21425;DHT22;10873;51.132;16.848;2023-08-06T14:53:10;28.80;69.50
21425;DHT22;10873;51.132;16.848;2023-08-06T14:55:39;29.00;70.20
21425;DHT22;10873;51.132;16.848;2023-08-06T14:58:05;29.20;70.10
21425;DHT22;10873;51.132;16.848;2023-08-06T15:00:32;29.40;70.40
21425;DHT22;10873;51.132;16.848;2023-08-06T15:02:59;29.60;70.50
21425;DHT22;10873;51.132;16.848;2023-08-06T15:05:25;29.80;70.70
21425;DHT22;10873;51.132;16.848;2023-08-06T15:07:51;29.90;70.90
21425;DHT22;10873;51.132;16.848;2023-08-06T15:10:19;30.00;70.90
21425;DHT22;10873;51.132;16.848;2023-08-06T15:12:46;30.10;70.00
21425;DHT22;10873;51.132;16.848;2023-08-06T15:15:12;30.10;68.70